Time;durP1;ratioP1;P1;durP2;ratioP2;P2;SDS_P1;SDS_P2;PMS_P1;PMS_P2;Temp;Humidity;BMP_temperature;BMP_pressure;BME280_temperature;BME280_humidity;BME280_pressure;Samples;Min_cycle;Max_cycle;Signal;HPM_P1;HPM_P2
2023/01/03 00:01:44;;;;;;;;;;;5.90;99.90;;;;;;5094398;28;19997;-80
2023/01/03 00:04:10;;;;;;;;;;;5.90;99.90;;;;;;5076065;28;19943;-78
2023/01/03 00:06:37;;;;;;;;;;;5.90;99.90;;;;;;5093674;28;20017;-80
2023/01/03 00:09:04;;;;;;;;;;;6.00;99.90;;;;;;5093449;28;19958;-79
2023/01/03 00:14:17;;;;;;;;;;;6.10;99.90;;;;;;5093233;28;20376;-80
2023/01/03 00:16:42;;;;;;;;;;;6.10;99.90;;;;;;5103127;28;20410;-79
2023/01/03 00:19:12;;;;;;;;;;;6.10;99.90;;;;;;5095993;28;19938;-79
2023/01/03 00:21:38;;;;;;;;;;;6.00;99.90;;;;;;5092030;28;19912;-80
2023/01/03 00:24:04;;;;;;;;;;;6.00;99.90;;;;;;5092752;28;19955;-78
2023/01/03 00:26:30;;;;;;;;;;;6.00;99.90;;;;;;5103878;28;19916;-82
2023/01/03 00:28:56;;;;;;;;;;;6.00;99.90;;;;;;5099558;28;20179;-79
2023/01/03 00:31:21;;;;;;;;;;;6.00;99.90;;;;;;5102171;28;20278;-79
2023/01/03 00:33:47;;;;;;;;;;;6.00;99.90;;;;;;5092088;28;19985;-79
2023/01/03 00:36:12;;;;;;;;;;;6.10;99.90;;;;;;5092144;28;19916;-79
2023/01/03 00:38:38;;;;;;;;;;;6.10;99.90;;;;;;5087447;28;19999;-79
2023/01/03 00:41:04;;;;;;;;;;;6.10;99.90;;;;;;5106476;28;19915;-79
2023/01/03 00:43:30;;;;;;;;;;;6.20;99.90;;;;;;5093026;28;20372;-83
2023/01/03 00:45:56;;;;;;;;;;;6.30;99.90;;;;;;5105675;28;19954;-79
2023/01/03 00:48:21;;;;;;;;;;;6.40;99.90;;;;;;5092451;28;19911;-80
2023/01/03 00:50:47;;;;;;;;;;;6.40;99.90;;;;;;5092263;28;20393;-79
2023/01/03 00:53:12;;;;;;;;;;;6.50;99.90;;;;;;5092275;28;19912;-80
2023/01/03 00:55:38;;;;;;;;;;;6.60;99.90;;;;;;5105335;28;19912;-80
2023/01/03 00:58:04;;;;;;;;;;;6.80;99.90;;;;;;5074382;28;19969;-80
2023/01/03 01:00:29;;;;;;;;;;;6.90;99.90;;;;;;5092148;28;19912;-80
2023/01/03 01:02:55;;;;;;;;;;;7.00;99.90;;;;;;5092005;28;19952;-79
2023/01/03 01:05:21;;;;;;;;;;;7.10;99.90;;;;;;5073449;28;19939;-79
2023/01/03 01:07:46;;;;;;;;;;;7.10;99.90;;;;;;5091322;28;19943;-79
2023/01/03 01:10:12;;;;;;;;;;;7.20;99.90;;;;;;5091907;28;19962;-80
2023/01/03 01:12:37;;;;;;;;;;;7.30;99.90;;;;;;5091752;28;19912;-80
2023/01/03 01:15:04;;;;;;;;;;;7.30;99.90;;;;;;5092245;28;19966;-80
2023/01/03 01:17:29;;;;;;;;;;;7.40;99.90;;;;;;5092569;28;19935;-79
2023/01/03 01:19:55;;;;;;;;;;;7.40;99.90;;;;;;5092146;28;20353;-79
2023/01/03 01:22:20;;;;;;;;;;;7.40;99.90;;;;;;5092441;28;19912;-80
2023/01/03 01:24:46;;;;;;;;;;;7.40;99.90;;;;;;5091318;28;19908;-79
2023/01/03 01:27:11;;;;;;;;;;;7.50;99.90;;;;;;5092797;28;20242;-79
2023/01/03 01:29:37;;;;;;;;;;;7.60;99.90;;;;;;5091603;28;19915;-80
2023/01/03 01:32:03;;;;;;;;;;;7.60;99.90;;;;;;5091994;28;20445;-79
2023/01/03 01:34:29;;;;;;;;;;;7.60;99.90;;;;;;5092063;28;19920;-79
2023/01/03 01:36:55;;;;;;;;;;;7.70;99.90;;;;;;5091623;28;20377;-79
2023/01/03 01:39:22;;;;;;;;;;;7.70;99.90;;;;;;5074399;28;20006;-79
2023/01/03 01:44:47;;;;;;;;;;;7.80;99.90;;;;;;5092237;28;20277;-83
2023/01/03 01:47:31;;;;;;;;;;;7.80;99.90;;;;;;5092583;28;19916;-79
2023/01/03 01:50:04;;;;;;;;;;;7.90;99.90;;;;;;5091642;28;19912;-79
2023/01/03 01:52:30;;;;;;;;;;;8.00;99.90;;;;;;5092119;28;20098;-79
2023/01/03 01:54:56;;;;;;;;;;;8.10;99.90;;;;;;5091478;28;19957;-79
2023/01/03 01:57:23;;;;;;;;;;;8.10;99.90;;;;;;5091963;28;19965;-79
2023/01/03 01:59:49;;;;;;;;;;;8.10;99.90;;;;;;5073361;28;19912;-79
2023/01/03 02:02:17;;;;;;;;;;;8.10;99.90;;;;;;5091991;28;19968;-79
2023/01/03 02:04:43;;;;;;;;;;;8.00;99.90;;;;;;5091502;28;19908;-79
2023/01/03 02:07:08;;;;;;;;;;;8.10;99.90;;;;;;5091844;28;20365;-79
2023/01/03 02:09:34;;;;;;;;;;;8.00;99.90;;;;;;5091644;28;19915;-83
2023/01/03 02:15:21;;;;;;;;;;;8.10;99.90;;;;;;5091445;28;20234;-79
2023/01/03 02:17:59;;;;;;;;;;;8.10;99.90;;;;;;5090818;28;19912;-79
2023/01/03 02:20:24;;;;;;;;;;;8.10;99.90;;;;;;5092086;28;19957;-79
2023/01/03 02:22:53;;;;;;;;;;;8.10;99.90;;;;;;5091472;28;19912;-79
2023/01/03 02:25:37;;;;;;;;;;;8.10;99.90;;;;;;5108289;28;20249;-79
2023/01/03 02:28:05;;;;;;;;;;;8.20;99.90;;;;;;5111758;28;19927;-80
2023/01/03 02:30:36;;;;;;;;;;;8.20;99.90;;;;;;5111756;28;19912;-80
2023/01/03 02:33:01;;;;;;;;;;;8.20;99.90;;;;;;5111766;28;20376;-80
2023/01/03 02:35:36;;;;;;;;;;;8.20;99.90;;;;;;5111925;28;19911;-80
2023/01/03 02:38:20;;;;;;;;;;;8.20;99.90;;;;;;5112123;28;19971;-81
2023/01/03 02:40:54;;;;;;;;;;;8.20;99.90;;;;;;5111522;28;20324;-80
2023/01/03 02:43:40;;;;;;;;;;;8.30;99.90;;;;;;5112063;28;19912;-81
2023/01/03 02:46:08;;;;;;;;;;;8.30;99.90;;;;;;5110986;28;19973;-82
2023/01/03 02:48:45;;;;;;;;;;;8.30;99.90;;;;;;5111686;28;20378;-82
2023/01/03 02:51:14;;;;;;;;;;;8.30;99.90;;;;;;5112090;28;19911;-82
2023/01/03 02:53:42;;;;;;;;;;;8.40;99.90;;;;;;5111649;28;19912;-84
2023/01/03 02:56:11;;;;;;;;;;;8.40;99.90;;;;;;5094207;28;19970;-85
2023/01/03 02:58:37;;;;;;;;;;;8.40;99.90;;;;;;5093559;28;19915;-83
2023/01/03 03:01:04;;;;;;;;;;;8.40;99.90;;;;;;5110783;28;19912;-84
2023/01/03 03:03:35;;;;;;;;;;;8.40;99.90;;;;;;5103112;28;19908;-84
2023/01/03 03:06:05;;;;;;;;;;;8.40;99.90;;;;;;5129612;28;20013;-84
2023/01/03 03:08:31;;;;;;;;;;;8.40;99.90;;;;;;5118395;28;19912;-84
2023/01/03 03:13:45;;;;;;;;;;;8.30;99.90;;;;;;5121094;28;20061;-83
2023/01/03 03:16:17;;;;;;;;;;;8.30;99.90;;;;;;5107942;28;19920;-81
2023/01/03 03:18:54;;;;;;;;;;;8.40;99.90;;;;;;5124609;28;19961;-82
2023/01/03 03:29:58;;;;;;;;;;;8.50;99.90;;;;;;5136056;27;19907;-83
2023/01/03 03:32:25;;;;;;;;;;;8.60;99.90;;;;;;5138670;28;19951;-80
2023/01/03 03:34:52;;;;;;;;;;;8.60;99.90;;;;;;5137905;28;19964;-82
2023/01/03 03:37:19;;;;;;;;;;;8.60;99.90;;;;;;5137942;27;19904;-82
2023/01/03 03:45:35;;;;;;;;;;;8.60;99.90;;;;;;5115170;28;19915;-83
2023/01/03 03:48:13;;;;;;;;;;;8.60;99.90;;;;;;5114139;28;19919;-83
2023/01/03 03:50:38;;;;;;;;;;;8.70;99.90;;;;;;5114906;28;20284;-83
2023/01/03 03:53:05;;;;;;;;;;;8.70;99.90;;;;;;5114572;28;20011;-83
2023/01/03 03:55:34;;;;;;;;;;;8.80;99.90;;;;;;5114894;28;20336;-83
2023/01/03 03:58:06;;;;;;;;;;;8.80;99.90;;;;;;5113916;28;19916;-83
2023/01/03 04:00:37;;;;;;;;;;;8.80;99.90;;;;;;5114632;28;19930;-83
2023/01/03 04:03:03;;;;;;;;;;;8.80;99.90;;;;;;5114019;28;20045;-83
2023/01/03 04:05:31;;;;;;;;;;;8.90;99.90;;;;;;5114722;28;19907;-83
2023/01/03 04:07:56;;;;;;;;;;;9.00;99.90;;;;;;5095748;28;19915;-83
2023/01/03 04:10:22;;;;;;;;;;;9.00;99.90;;;;;;5095857;28;19919;-82
2023/01/03 04:12:48;;;;;;;;;;;9.10;99.90;;;;;;5101447;28;20245;-83
2023/01/03 04:15:14;;;;;;;;;;;9.10;99.90;;;;;;5093847;28;19919;-83
2023/01/03 04:17:40;;;;;;;;;;;9.10;99.90;;;;;;5093607;28;19912;-83
2023/01/03 04:20:06;;;;;;;;;;;9.10;99.90;;;;;;5093512;28;20332;-83
2023/01/03 04:22:31;;;;;;;;;;;9.10;99.90;;;;;;5101466;28;19991;-83
2023/01/03 04:24:57;;;;;;;;;;;9.20;99.90;;;;;;5113269;28;19907;-84
2023/01/03 04:27:22;;;;;;;;;;;9.10;99.90;;;;;;5114292;28;19998;-85
2023/01/03 04:29:48;;;;;;;;;;;9.20;99.90;;;;;;5113474;28;19934;-82
2023/01/03 04:32:14;;;;;;;;;;;9.30;99.90;;;;;;5114796;28;19908;-82
2023/01/03 04:34:39;;;;;;;;;;;9.30;99.90;;;;;;5114168;28;19954;-81
2023/01/03 04:37:05;;;;;;;;;;;9.40;99.90;;;;;;5114146;28;20069;-81
2023/01/03 04:39:30;;;;;;;;;;;9.40;99.90;;;;;;5114851;28;20011;-80
2023/01/03 04:41:56;;;;;;;;;;;9.50;99.90;;;;;;5112950;28;19936;-83
2023/01/03 04:44:21;;;;;;;;;;;9.50;99.90;;;;;;5113907;28;20240;-83
2023/01/03 04:46:47;;;;;;;;;;;9.40;99.90;;;;;;5113485;28;19990;-83
2023/01/03 04:49:13;;;;;;;;;;;9.40;99.90;;;;;;5112929;28;19912;-83
2023/01/03 04:51:38;;;;;;;;;;;9.40;99.90;;;;;;5095226;28;20281;-83
2023/01/03 04:54:04;;;;;;;;;;;9.40;99.90;;;;;;5112910;28;19919;-83
2023/01/03 04:56:31;;;;;;;;;;;9.50;99.90;;;;;;5113527;28;20360;-83
2023/01/03 04:58:57;;;;;;;;;;;9.50;99.90;;;;;;5112967;28;19930;-82
2023/01/03 05:01:22;;;;;;;;;;;9.50;99.90;;;;;;5114019;28;19999;-82
2023/01/03 05:03:48;;;;;;;;;;;9.60;99.90;;;;;;5113280;28;19908;-83
2023/01/03 05:06:14;;;;;;;;;;;9.70;99.90;;;;;;5113360;28;19908;-82
2023/01/03 05:08:40;;;;;;;;;;;9.70;99.90;;;;;;5095849;28;19991;-81
2023/01/03 05:11:06;;;;;;;;;;;9.70;99.90;;;;;;5112915;28;19970;-82
2023/01/03 05:13:32;;;;;;;;;;;9.70;99.90;;;;;;5113655;28;20383;-81
2023/01/03 05:16:05;;;;;;;;;;;9.80;99.90;;;;;;5106093;28;19916;-80
2023/01/03 05:18:31;;;;;;;;;;;9.80;99.90;;;;;;5092911;28;19919;-81
2023/01/03 05:26:45;;;;;;;;;;;9.80;99.90;;;;;;5030373;28;19940;-81
2023/01/03 05:29:12;;;;;;;;;;;9.80;99.90;;;;;;5066360;28;19920;-80
2023/01/03 05:31:37;;;;;;;;;;;9.80;99.90;;;;;;5092270;28;20057;-81
2023/01/03 05:34:03;;;;;;;;;;;9.80;99.90;;;;;;5091345;28;20019;-81
2023/01/03 05:36:29;;;;;;;;;;;9.70;99.90;;;;;;5092191;28;19912;-80
2023/01/03 05:38:54;;;;;;;;;;;9.70;99.90;;;;;;5091824;28;19908;-81
2023/01/03 05:44:04;;;;;;;;;;;9.60;99.90;;;;;;5091285;28;19920;-80
2023/01/03 05:46:30;;;;;;;;;;;9.50;99.90;;;;;;5091971;28;19908;-80
2023/01/03 05:48:56;;;;;;;;;;;9.50;99.90;;;;;;5091544;28;19908;-80
2023/01/03 05:51:21;;;;;;;;;;;9.50;99.90;;;;;;5092216;28;19912;-80
2023/01/03 05:53:47;;;;;;;;;;;9.60;99.90;;;;;;5092076;28;19919;-79
2023/01/03 05:56:12;;;;;;;;;;;9.50;99.90;;;;;;5091213;28;19932;-79
2023/01/03 05:58:38;;;;;;;;;;;9.50;99.90;;;;;;5091365;28;19908;-80
2023/01/03 06:01:07;;;;;;;;;;;9.50;99.90;;;;;;5091144;28;19919;-79
2023/01/03 06:03:33;;;;;;;;;;;9.50;99.90;;;;;;5091771;28;19931;-80
2023/01/03 06:06:01;;;;;;;;;;;9.50;99.90;;;;;;5091257;28;20314;-79
2023/01/03 06:08:27;;;;;;;;;;;9.50;99.90;;;;;;5091374;28;20322;-79
2023/01/03 06:10:52;;;;;;;;;;;9.50;99.90;;;;;;5091295;28;19920;-84
2023/01/03 06:13:20;;;;;;;;;;;9.40;99.90;;;;;;5073124;28;20353;-79
2023/01/03 06:17:53;;;;;;;;;;;9.50;99.90;;;;;;5091813;28;20005;-79
2023/01/03 06:18:33;;;;;;;;;;;9.40;99.90;;;;;;5091382;28;20419;-80
2023/01/03 06:20:58;;;;;;;;;;;9.40;99.90;;;;;;5091132;28;20077;-80
2023/01/03 06:23:24;;;;;;;;;;;9.40;99.90;;;;;;5091233;28;19908;-80
2023/01/03 06:25:49;;;;;;;;;;;9.40;99.90;;;;;;5090985;28;19920;-80
2023/01/03 06:28:15;;;;;;;;;;;9.40;99.90;;;;;;5091101;28;20065;-81
2023/01/03 06:30:41;;;;;;;;;;;9.40;99.90;;;;;;5091235;28;19919;-81
2023/01/03 06:33:06;;;;;;;;;;;9.40;99.90;;;;;;5072606;28;20414;-82
2023/01/03 06:35:32;;;;;;;;;;;9.40;99.90;;;;;;5090853;28;19912;-80
2023/01/03 06:37:58;;;;;;;;;;;9.40;99.90;;;;;;5090785;28;19991;-82
2023/01/03 06:40:23;;;;;;;;;;;9.40;99.90;;;;;;5090880;28;20357;-81
2023/01/03 06:42:49;;;;;;;;;;;9.40;99.90;;;;;;5073034;28;20013;-81
2023/01/03 06:53:33;;;;;;;;;;;9.20;99.90;;;;;;5091003;28;20025;-81
2023/01/03 06:55:59;;;;;;;;;;;9.20;99.90;;;;;;5090813;28;19999;-81
2023/01/03 06:58:24;;;;;;;;;;;9.20;99.90;;;;;;5091072;28;20363;-80
2023/01/03 07:00:50;;;;;;;;;;;9.20;99.90;;;;;;5096084;28;19958;-81
2023/01/03 07:03:16;;;;;;;;;;;9.20;99.90;;;;;;5100210;28;20401;-79
2023/01/03 07:05:41;;;;;;;;;;;9.20;99.90;;;;;;5095716;28;19920;-80
2023/01/03 07:08:07;;;;;;;;;;;9.30;99.90;;;;;;5094818;28;19914;-79
2023/01/03 07:10:32;;;;;;;;;;;9.30;99.90;;;;;;5095511;28;19927;-82
2023/01/03 07:15:45;;;;;;;;;;;9.30;99.90;;;;;;5115993;28;19961;-80
2023/01/03 07:18:11;;;;;;;;;;;9.30;99.90;;;;;;5115080;28;20256;-80
2023/01/03 07:20:43;;;;;;;;;;;9.30;99.90;;;;;;5115793;28;20006;-80
2023/01/03 07:23:08;;;;;;;;;;;9.30;99.90;;;;;;5115440;28;19923;-80
2023/01/03 07:25:34;;;;;;;;;;;9.30;99.90;;;;;;5116599;28;20003;-80
2023/01/03 07:28:00;;;;;;;;;;;9.20;99.90;;;;;;5096243;28;19907;-82
2023/01/03 07:30:25;;;;;;;;;;;9.20;99.90;;;;;;5118531;28;19954;-80
2023/01/03 07:32:51;;;;;;;;;;;9.10;99.90;;;;;;5126599;28;19985;-81
2023/01/03 07:35:16;;;;;;;;;;;9.20;99.90;;;;;;5115276;28;20668;-82
2023/01/03 07:37:42;;;;;;;;;;;9.10;99.90;;;;;;5115635;28;19912;-82
2023/01/03 07:40:08;;;;;;;;;;;9.10;99.90;;;;;;5114237;28;19949;-82
2023/01/03 07:45:17;;;;;;;;;;;9.20;99.90;;;;;;5099793;28;20047;-81
2023/01/03 07:47:46;;;;;;;;;;;9.20;99.90;;;;;;5111858;28;19920;-82
2023/01/03 07:50:12;;;;;;;;;;;9.10;99.90;;;;;;5094675;28;19909;-80
2023/01/03 07:52:38;;;;;;;;;;;9.10;99.90;;;;;;5076167;28;19934;-81
2023/01/03 07:55:03;;;;;;;;;;;9.10;99.90;;;;;;5075669;28;19951;-82
2023/01/03 07:57:29;;;;;;;;;;;9.00;99.90;;;;;;5076109;28;19912;-81
2023/01/03 07:59:54;;;;;;;;;;;9.00;99.90;;;;;;5094317;28;20003;-82
2023/01/03 08:02:20;;;;;;;;;;;9.00;99.90;;;;;;5094242;28;19908;-81
2023/01/03 08:04:46;;;;;;;;;;;9.00;99.90;;;;;;5094247;28;20416;-80
2023/01/03 08:07:11;;;;;;;;;;;9.00;99.90;;;;;;5093596;28;19912;-80
2023/01/03 08:15:05;;;;;;;;;;;9.20;99.90;;;;;;5105532;28;19922;-80
2023/01/03 08:17:31;;;;;;;;;;;9.20;99.90;;;;;;5116381;28;20299;-80
2023/01/03 08:19:56;;;;;;;;;;;9.20;99.90;;;;;;5128102;28;19915;-81
2023/01/03 08:22:22;;;;;;;;;;;9.20;99.90;;;;;;5114431;28;19904;-80
2023/01/03 08:24:47;;;;;;;;;;;9.30;99.90;;;;;;5114700;28;20040;-80
2023/01/03 08:27:13;;;;;;;;;;;9.30;99.90;;;;;;5114388;28;19919;-81
2023/01/03 08:29:38;;;;;;;;;;;9.30;99.90;;;;;;5114273;28;19915;-80
2023/01/03 08:32:05;;;;;;;;;;;9.20;99.90;;;;;;5113515;28;19912;-80
2023/01/03 08:34:33;;;;;;;;;;;9.30;99.90;;;;;;5114005;28;20628;-79
2023/01/03 08:37:00;;;;;;;;;;;9.30;99.90;;;;;;5114193;28;19912;-79
2023/01/03 08:39:27;;;;;;;;;;;9.40;99.90;;;;;;5113426;28;20326;-79
2023/01/03 08:41:58;;;;;;;;;;;9.40;99.90;;;;;;5114281;28;20325;-79
2023/01/03 08:44:24;;;;;;;;;;;9.40;99.90;;;;;;5118420;28;19980;-77
2023/01/03 08:46:51;;;;;;;;;;;9.40;99.90;;;;;;5126614;28;20262;-77
2023/01/03 08:49:17;;;;;;;;;;;9.40;99.90;;;;;;5126955;28;19958;-80
2023/01/03 08:51:42;;;;;;;;;;;9.40;99.90;;;;;;5126649;28;20351;-80
2023/01/03 08:54:08;;;;;;;;;;;9.50;99.90;;;;;;5123875;28;19998;-80
2023/01/03 08:56:34;;;;;;;;;;;9.50;99.90;;;;;;5120402;28;19918;-81
2023/01/03 08:58:59;;;;;;;;;;;9.50;99.90;;;;;;5113344;28;20309;-78
2023/01/03 09:01:25;;;;;;;;;;;9.60;99.90;;;;;;5106880;28;19934;-80
2023/01/03 09:03:51;;;;;;;;;;;9.60;99.90;;;;;;5097160;28;19912;-79
2023/01/03 09:06:17;;;;;;;;;;;9.60;99.90;;;;;;5096263;28;19999;-81
2023/01/03 09:08:42;;;;;;;;;;;9.60;99.90;;;;;;5077739;28;19919;-79
2023/01/03 09:11:08;;;;;;;;;;;9.60;99.90;;;;;;5095667;28;20385;-80
2023/01/03 09:13:34;;;;;;;;;;;9.60;99.90;;;;;;5096077;28;20082;-80
2023/01/03 09:16:04;;;;;;;;;;;9.70;99.90;;;;;;5078126;28;19966;-81
2023/01/03 09:18:30;;;;;;;;;;;9.60;99.90;;;;;;5104723;28;19916;-80
2023/01/03 09:20:56;;;;;;;;;;;9.70;99.90;;;;;;5082090;28;19922;-80
2023/01/03 09:23:21;;;;;;;;;;;9.70;99.90;;;;;;5089241;28;19907;-79
2023/01/03 09:25:47;;;;;;;;;;;9.80;99.90;;;;;;5102819;28;19908;-80
2023/01/03 09:28:13;;;;;;;;;;;9.80;99.90;;;;;;5113020;28;20384;-80
2023/01/03 09:30:38;;;;;;;;;;;9.90;99.90;;;;;;5116022;28;19951;-80
2023/01/03 09:33:04;;;;;;;;;;;9.90;99.90;;;;;;5115150;28;20003;-80
2023/01/03 09:35:30;;;;;;;;;;;9.80;99.90;;;;;;5113371;28;19922;-82
2023/01/03 09:37:55;;;;;;;;;;;9.80;99.90;;;;;;5093198;28;19912;-82
2023/01/03 09:40:21;;;;;;;;;;;9.80;99.90;;;;;;5093675;28;19923;-82
2023/01/03 09:45:48;;;;;;;;;;;9.80;99.90;;;;;;5087837;28;20144;-82
2023/01/03 09:48:16;;;;;;;;;;;9.80;99.90;;;;;;5097738;28;19919;-82
2023/01/03 09:50:42;;;;;;;;;;;9.80;99.90;;;;;;5094045;28;19912;-81
2023/01/03 10:04:59;;;;;;;;;;;10.00;99.90;;;;;;5094193;28;20041;-84
2023/01/03 10:07:34;;;;;;;;;;;10.00;99.90;;;;;;5092806;28;19957;-85
2023/01/03 10:10:05;;;;;;;;;;;10.00;99.90;;;;;;5094061;28;19920;-84
2023/01/03 10:12:34;;;;;;;;;;;10.10;99.90;;;;;;5092893;28;19938;-85
2023/01/03 10:15:15;;;;;;;;;;;10.20;99.90;;;;;;5099216;28;20422;-85
2023/01/03 10:17:41;;;;;;;;;;;10.30;99.90;;;;;;5113093;28;20377;-84
2023/01/03 10:20:09;;;;;;;;;;;10.40;99.90;;;;;;5105391;28;19907;-84
2023/01/03 10:22:36;;;;;;;;;;;10.40;99.90;;;;;;5103294;28;19958;-84
2023/01/03 10:25:12;;;;;;;;;;;10.50;99.90;;;;;;5099305;28;19984;-82
2023/01/03 10:27:45;;;;;;;;;;;10.50;99.90;;;;;;5098947;28;19919;-82
2023/01/03 10:30:15;;;;;;;;;;;10.60;99.90;;;;;;5104189;28;19938;-82
2023/01/03 10:32:41;;;;;;;;;;;10.60;99.90;;;;;;5084168;28;19912;-82
2023/01/03 10:35:12;;;;;;;;;;;10.60;99.90;;;;;;5097890;28;19969;-81
2023/01/03 10:37:39;;;;;;;;;;;10.60;99.90;;;;;;5100844;28;19939;-81
2023/01/03 10:40:05;;;;;;;;;;;10.70;99.90;;;;;;5099320;28;20007;-82
2023/01/03 10:42:32;;;;;;;;;;;10.70;99.90;;;;;;5096412;28;19930;-82
2023/01/03 10:45:03;;;;;;;;;;;10.70;99.90;;;;;;5092237;28;19908;-82
2023/01/03 10:47:29;;;;;;;;;;;10.70;99.90;;;;;;5092092;28;20900;-82
2023/01/03 10:49:59;;;;;;;;;;;10.60;99.90;;;;;;5094889;28;19950;-83
2023/01/03 10:52:28;;;;;;;;;;;10.60;99.90;;;;;;5116183;28;19908;-81
2023/01/03 10:55:02;;;;;;;;;;;10.60;99.90;;;;;;5113873;28;19967;-81
2023/01/03 10:57:47;;;;;;;;;;;10.60;99.90;;;;;;5111443;28;19965;-81
2023/01/03 11:00:19;;;;;;;;;;;10.60;99.90;;;;;;5113337;28;19915;-82
2023/01/03 11:02:45;;;;;;;;;;;10.60;99.90;;;;;;5115515;28;19945;-81
2023/01/03 11:05:15;;;;;;;;;;;10.60;99.90;;;;;;5112490;28;19989;-82
2023/01/03 11:07:42;;;;;;;;;;;10.60;99.90;;;;;;5112083;28;19919;-82
2023/01/03 11:10:14;;;;;;;;;;;10.60;99.90;;;;;;5093410;28;20279;-82
2023/01/03 11:12:43;;;;;;;;;;;10.60;99.90;;;;;;5111285;28;19969;-82
2023/01/03 11:15:16;;;;;;;;;;;10.70;99.90;;;;;;5111488;28;19924;-81
2023/01/03 11:17:52;;;;;;;;;;;10.90;99.90;;;;;;5111211;28;20002;-81
2023/01/03 11:20:18;;;;;;;;;;;10.90;99.90;;;;;;5110218;28;19957;-81
2023/01/03 11:22:55;;;;;;;;;;;11.00;99.90;;;;;;5097728;28;19912;-81
2023/01/03 11:25:30;;;;;;;;;;;11.00;99.90;;;;;;5106452;28;19922;-82
2023/01/03 11:28:08;;;;;;;;;;;11.10;99.90;;;;;;5092731;28;19908;-81
2023/01/03 11:30:36;;;;;;;;;;;11.10;99.90;;;;;;5091224;28;20578;-81
2023/01/03 11:33:27;;;;;;;;;;;11.20;99.90;;;;;;5089436;28;19912;-81
2023/01/03 11:36:01;;;;;;;;;;;11.30;99.90;;;;;;5097016;28;20379;-82
2023/01/03 11:38:39;;;;;;;;;;;11.30;99.90;;;;;;5098445;28;19915;-80
2023/01/03 11:41:07;;;;;;;;;;;11.30;99.90;;;;;;5101870;28;19918;-81
2023/01/03 11:43:38;;;;;;;;;;;11.40;99.90;;;;;;5093349;28;19919;-81
2023/01/03 11:46:10;;;;;;;;;;;11.50;99.90;;;;;;5099397;28;19908;-82
2023/01/03 11:48:38;;;;;;;;;;;11.60;99.90;;;;;;5095349;28;19975;-82
2023/01/03 11:51:13;;;;;;;;;;;11.60;99.90;;;;;;5092920;28;20014;-81
2023/01/03 11:53:47;;;;;;;;;;;11.70;99.90;;;;;;5093982;28;19965;-81
2023/01/03 11:56:13;;;;;;;;;;;11.70;99.90;;;;;;5093925;28;19919;-83
2023/01/03 11:58:57;;;;;;;;;;;11.70;99.90;;;;;;5094088;28;20290;-81
2023/01/03 12:01:49;;;;;;;;;;;11.80;99.90;;;;;;5110303;28;19986;-81
2023/01/03 12:04:37;;;;;;;;;;;11.80;99.90;;;;;;5075012;28;19947;-83
2023/01/03 12:07:21;;;;;;;;;;;11.90;99.90;;;;;;5114142;28;20331;-80
2023/01/03 12:09:53;;;;;;;;;;;11.90;99.90;;;;;;5114549;28;19908;-80
2023/01/03 12:12:45;;;;;;;;;;;11.90;99.90;;;;;;5113815;28;19924;-81
2023/01/03 12:15:16;;;;;;;;;;;12.00;99.90;;;;;;5094199;28;19965;-80
2023/01/03 12:17:44;;;;;;;;;;;12.00;99.90;;;;;;5095330;28;19919;-81
2023/01/03 12:20:14;;;;;;;;;;;12.00;99.90;;;;;;5113903;28;20198;-80
2023/01/03 12:22:44;;;;;;;;;;;12.10;99.90;;;;;;5119273;28;19908;-80
2023/01/03 12:25:13;;;;;;;;;;;12.10;99.90;;;;;;5126751;28;19935;-81
2023/01/03 12:27:42;;;;;;;;;;;12.10;99.90;;;;;;5113569;28;20314;-80
2023/01/03 12:30:14;;;;;;;;;;;12.20;99.90;;;;;;5095068;28;19908;-81
2023/01/03 12:32:42;;;;;;;;;;;12.20;99.90;;;;;;5074156;28;19987;-80
2023/01/03 12:35:27;;;;;;;;;;;12.30;99.90;;;;;;5093449;28;20006;-81
2023/01/03 12:37:53;;;;;;;;;;;12.30;99.90;;;;;;5093335;28;20276;-81
2023/01/03 12:40:25;;;;;;;;;;;12.30;99.90;;;;;;5093101;28;19962;-82
2023/01/03 12:42:57;;;;;;;;;;;12.30;99.90;;;;;;5094899;28;19948;-81
2023/01/03 12:46:00;;;;;;;;;;;12.30;99.90;;;;;;5113412;28;19908;-82
2023/01/03 12:48:39;;;;;;;;;;;12.40;99.90;;;;;;5010681;28;19940;-81
2023/01/03 12:51:05;;;;;;;;;;;12.30;99.90;;;;;;5011208;28;19910;-81
2023/01/03 12:53:34;;;;;;;;;;;12.30;99.90;;;;;;5010497;28;19914;-82
2023/01/03 12:56:02;;;;;;;;;;;12.40;99.90;;;;;;5011490;28;19983;-81
2023/01/03 12:58:30;;;;;;;;;;;12.40;99.90;;;;;;5011013;28;19933;-81
2023/01/03 13:00:58;;;;;;;;;;;12.40;99.90;;;;;;5011939;28;19909;-83
2023/01/03 13:03:28;;;;;;;;;;;12.40;99.90;;;;;;5010271;28;19909;-81
2023/01/03 13:05:57;;;;;;;;;;;12.40;99.90;;;;;;5011107;28;19918;-81
2023/01/03 13:08:37;;;;;;;;;;;12.40;99.90;;;;;;5010140;28;19909;-81
2023/01/03 13:11:05;;;;;;;;;;;12.40;99.90;;;;;;5010325;28;20286;-81
2023/01/03 13:13:31;;;;;;;;;;;12.30;99.90;;;;;;5006281;28;19964;-81
2023/01/03 13:16:19;;;;;;;;;;;12.30;99.90;;;;;;4993411;28;20138;-81
2023/01/03 13:18:44;;;;;;;;;;;12.30;99.90;;;;;;5015180;28;19916;-81
2023/01/03 13:21:29;;;;;;;;;;;12.30;99.90;;;;;;5084801;28;20557;-81
2023/01/03 13:23:58;;;;;;;;;;;12.40;99.90;;;;;;5095285;28;19908;-80
2023/01/03 13:26:25;;;;;;;;;;;12.40;99.90;;;;;;5099802;28;19912;-81
2023/01/03 13:28:51;;;;;;;;;;;12.40;99.90;;;;;;5103208;28;19908;-80
2023/01/03 13:31:16;;;;;;;;;;;12.40;99.90;;;;;;5092109;28;20419;-81
2023/01/03 13:33:51;;;;;;;;;;;12.40;99.90;;;;;;5101489;28;19920;-80
2023/01/03 13:36:17;;;;;;;;;;;12.40;99.90;;;;;;5099524;28;19920;-80
2023/01/03 13:38:42;;;;;;;;;;;12.40;99.90;;;;;;5101541;28;19908;-81
2023/01/03 13:41:27;;;;;;;;;;;12.40;99.90;;;;;;5106662;28;19915;-81
2023/01/03 13:43:53;;;;;;;;;;;12.50;99.90;;;;;;5102058;28;19973;-83
2023/01/03 13:46:24;;;;;;;;;;;12.50;99.90;;;;;;5101859;28;19918;-84
2023/01/03 13:49:01;;;;;;;;;;;12.50;99.90;;;;;;5098790;28;19919;-80
2023/01/03 13:51:27;;;;;;;;;;;12.50;99.90;;;;;;5082528;28;19912;-81
2023/01/03 13:53:57;;;;;;;;;;;12.50;99.90;;;;;;5105779;28;20245;-82
2023/01/03 13:56:24;;;;;;;;;;;12.60;99.90;;;;;;5103081;28;19937;-81
2023/01/03 13:58:51;;;;;;;;;;;12.60;99.90;;;;;;5079395;28;19915;-81
2023/01/03 14:01:22;;;;;;;;;;;12.70;99.90;;;;;;5101055;28;20322;-81
2023/01/03 14:04:14;;;;;;;;;;;12.70;99.90;;;;;;5102991;28;19956;-80
2023/01/03 14:07:00;;;;;;;;;;;12.70;99.90;;;;;;5094401;28;19908;-81
2023/01/03 14:09:26;;;;;;;;;;;12.80;99.90;;;;;;5102170;28;19935;-81
2023/01/03 14:12:06;;;;;;;;;;;12.80;99.90;;;;;;5105322;28;19927;-80
2023/01/03 14:14:34;;;;;;;;;;;12.90;99.90;;;;;;5085142;28;19919;-84
2023/01/03 14:17:01;;;;;;;;;;;12.90;99.90;;;;;;5094816;28;19916;-81
2023/01/03 14:19:33;;;;;;;;;;;12.80;99.90;;;;;;5101414;28;19965;-82
2023/01/03 14:22:04;;;;;;;;;;;12.80;99.90;;;;;;5103220;28;19927;-79
2023/01/03 14:24:31;;;;;;;;;;;12.80;99.90;;;;;;5102531;28;19908;-80
2023/01/03 14:27:04;;;;;;;;;;;12.80;99.90;;;;;;5079982;28;19912;-79
2023/01/03 14:29:30;;;;;;;;;;;12.70;99.90;;;;;;5099889;28;19909;-80
2023/01/03 14:31:56;;;;;;;;;;;12.70;99.90;;;;;;5098434;28;20338;-81
2023/01/03 14:34:35;;;;;;;;;;;12.70;99.90;;;;;;5104040;28;20020;-84
2023/01/03 14:37:05;;;;;;;;;;;12.70;99.90;;;;;;5095751;28;20056;-79
2023/01/03 14:39:31;;;;;;;;;;;12.80;99.90;;;;;;5102254;28;19919;-80
2023/01/03 14:42:01;;;;;;;;;;;12.80;99.90;;;;;;5113175;28;19930;-79
2023/01/03 14:44:30;;;;;;;;;;;12.80;99.90;;;;;;5094677;28;19908;-80
2023/01/03 14:46:57;;;;;;;;;;;12.90;99.90;;;;;;5112440;28;19912;-79
2023/01/03 14:49:25;;;;;;;;;;;12.90;99.90;;;;;;5112233;28;19915;-83
2023/01/03 14:52:01;;;;;;;;;;;12.90;99.90;;;;;;5099279;28;19984;-79
2023/01/03 14:54:28;;;;;;;;;;;12.80;99.90;;;;;;5101284;28;19962;-79
2023/01/03 14:56:53;;;;;;;;;;;12.90;99.90;;;;;;5109534;28;19916;-80
2023/01/03 14:59:20;;;;;;;;;;;12.90;99.90;;;;;;5104380;28;19970;-80
2023/01/03 15:01:46;;;;;;;;;;;12.90;99.90;;;;;;5112358;28;19912;-77
2023/01/03 15:04:13;;;;;;;;;;;12.90;99.90;;;;;;5131174;28;20430;-77
2023/01/03 15:06:53;;;;;;;;;;;12.90;99.90;;;;;;5133914;28;19900;-81
2023/01/03 15:09:21;;;;;;;;;;;12.90;99.90;;;;;;5129296;28;19930;-83
2023/01/03 15:11:58;;;;;;;;;;;12.90;99.90;;;;;;5114799;28;19942;-76
2023/01/03 15:14:28;;;;;;;;;;;13.00;99.90;;;;;;5109328;28;19954;-86
2023/01/03 15:17:03;;;;;;;;;;;13.00;99.90;;;;;;5113461;28;19907;-77
2023/01/03 15:19:29;;;;;;;;;;;13.00;99.90;;;;;;5094788;28;19920;-77
2023/01/03 15:22:05;;;;;;;;;;;13.00;99.90;;;;;;5074641;28;19908;-76
2023/01/03 15:24:36;;;;;;;;;;;13.00;99.90;;;;;;5071949;28;19912;-75
2023/01/03 15:27:22;;;;;;;;;;;13.00;99.90;;;;;;5076050;28;19957;-76
2023/01/03 15:29:47;;;;;;;;;;;13.00;99.90;;;;;;5094737;28;19909;-77
2023/01/03 15:32:17;;;;;;;;;;;13.10;99.90;;;;;;5075927;28;19909;-76
2023/01/03 15:34:42;;;;;;;;;;;13.10;99.90;;;;;;5094989;28;19943;-76
2023/01/03 15:37:08;;;;;;;;;;;13.00;99.90;;;;;;5104372;28;20372;-76
2023/01/03 15:39:44;;;;;;;;;;;13.10;99.90;;;;;;5104602;28;19946;-78
2023/01/03 15:44:56;;;;;;;;;;;13.10;99.90;;;;;;5102666;28;19923;-77
2023/01/03 15:47:24;;;;;;;;;;;13.10;99.90;;;;;;5103910;28;19908;-81